Time;durP1;ratioP1;P1;durP2;ratioP2;P2;SDS_P1;SDS_P2;PMS_P1;PMS_P2;Temp;Humidity;BMP_temperature;BMP_pressure;BME280_temperature;BME280_humidity;BME280_pressure;Samples;Min_cycle;Max_cycle;Signal;HPM_P1;HPM_P2
2024/01/21 00:02:01;;;;;;;28.08;10.98;;;;;;;-3.42;94.68;102203.97;5006202;28;20037;-70
2024/01/21 00:04:26;;;;;;;23.75;10.80;;;;;;;-3.46;94.76;102195.59;5006109;28;20052;-70
2024/01/21 00:06:52;;;;;;;24.55;10.70;;;;;;;-3.41;94.48;102203.09;5025222;28;20029;-70
2024/01/21 00:09:17;;;;;;;22.23;9.70;;;;;;;-3.40;94.25;102190.38;5023500;28;20025;-70
2024/01/21 00:11:43;;;;;;;28.30;11.25;;;;;;;-3.41;93.84;102183.66;5010379;28;20056;-70
2024/01/21 00:14:08;;;;;;;24.98;10.05;;;;;;;-3.35;92.91;102188.59;5001465;28;20046;-70
2024/01/21 00:16:34;;;;;;;22.88;8.77;;;;;;;-3.35;93.42;102180.16;5005617;28;20042;-71
2024/01/21 00:18:59;;;;;;;28.02;10.57;;;;;;;-3.34;93.40;102164.88;5023787;28;20045;-71
2024/01/21 00:21:25;;;;;;;22.40;10.43;;;;;;;-3.34;93.43;102157.25;5013217;28;20053;-70
2024/01/21 00:23:50;;;;;;;25.70;10.40;;;;;;;-3.36;93.34;102153.94;5029465;28;20041;-71
2024/01/21 00:26:16;;;;;;;24.08;10.82;;;;;;;-3.28;92.91;102150.41;5004875;28;20025;-71
2024/01/21 00:28:41;;;;;;;27.10;9.93;;;;;;;-3.36;93.00;102150.56;5003322;28;20038;-70
2024/01/21 00:31:07;;;;;;;21.92;9.57;;;;;;;-3.29;91.92;102144.50;5008086;28;20029;-70
2024/01/21 00:33:32;;;;;;;22.45;9.38;;;;;;;-3.32;91.16;102140.31;5025517;28;20029;-71
2024/01/21 00:35:58;;;;;;;19.83;8.88;;;;;;;-3.32;91.40;102135.22;5008704;28;20066;-70
2024/01/21 00:38:23;;;;;;;19.23;9.60;;;;;;;-3.28;91.06;102132.63;5015480;28;20041;-71
2024/01/21 00:40:49;;;;;;;23.80;9.55;;;;;;;-3.36;90.71;102123.47;5008901;28;20029;-71
2024/01/21 00:43:14;;;;;;;19.73;9.20;;;;;;;-3.33;90.66;102123.44;4993121;28;20091;-70
2024/01/21 00:45:40;;;;;;;21.27;8.75;;;;;;;-3.36;90.30;102115.88;5020489;28;20033;-71
2024/01/21 00:48:06;;;;;;;21.88;8.77;;;;;;;-3.39;90.19;102110.03;5025891;28;20037;-71
2024/01/21 00:50:32;;;;;;;22.02;9.35;;;;;;;-3.34;89.95;102096.38;5014785;28;20025;-71
2024/01/21 00:52:57;;;;;;;24.38;10.02;;;;;;;-3.44;90.00;102107.59;5028469;28;20033;-71
2024/01/21 00:55:23;;;;;;;23.70;9.98;;;;;;;-3.41;89.94;102102.47;5008856;28;20033;-71
2024/01/21 00:57:48;;;;;;;26.92;10.15;;;;;;;-3.40;89.63;102088.91;5018301;28;20485;-71
2024/01/21 01:00:14;;;;;;;20.80;8.68;;;;;;;-3.43;89.66;102093.22;5004615;28;20033;-71
2024/01/21 01:02:40;;;;;;;21.58;9.30;;;;;;;-3.50;89.61;102092.53;5026990;28;20033;-71
2024/01/21 01:05:06;;;;;;;19.48;8.13;;;;;;;-3.41;88.79;102099.94;5008027;28;20396;-70
2024/01/21 01:07:31;;;;;;;20.92;8.65;;;;;;;-3.39;88.59;102089.75;5016570;28;20044;-71
2024/01/21 01:09:57;;;;;;;28.50;9.35;;;;;;;-3.41;88.62;102084.72;5003940;28;20037;-71
2024/01/21 01:12:22;;;;;;;20.42;9.35;;;;;;;-3.46;88.88;102075.56;5000826;28;20029;-71
2024/01/21 01:14:48;;;;;;;18.60;8.60;;;;;;;-3.44;88.71;102063.66;5017292;28;20555;-71
2024/01/21 01:17:13;;;;;;;26.25;8.93;;;;;;;-3.45;88.35;102064.53;5004276;28;20664;-70
2024/01/21 01:19:39;;;;;;;19.38;8.75;;;;;;;-3.44;87.90;102066.19;5020041;28;20393;-71
2024/01/21 01:22:04;;;;;;;23.10;8.85;;;;;;;-3.41;87.58;102064.44;5004117;28;20037;-70
2024/01/21 01:24:30;;;;;;;23.05;8.75;;;;;;;-3.44;87.83;102063.66;5000680;28;20094;-70
2024/01/21 01:26:55;;;;;;;23.50;9.85;;;;;;;-3.48;87.88;102079.78;5005294;28;20033;-70
2024/01/21 01:29:21;;;;;;;20.52;8.95;;;;;;;-3.38;87.10;102071.13;5021112;28;20038;-71
2024/01/21 01:31:46;;;;;;;23.33;8.80;;;;;;;-3.39;87.10;102069.44;5023113;28;20638;-70
2024/01/21 01:34:12;;;;;;;23.30;9.07;;;;;;;-3.34;86.90;102068.47;5005503;28;20068;-70
2024/01/21 01:36:39;;;;;;;21.83;9.10;;;;;;;-3.37;86.80;102065.16;4987124;28;20561;-70
2024/01/21 01:39:04;;;;;;;22.33;9.15;;;;;;;-3.38;87.41;102063.50;5016306;28;20041;-70
2024/01/21 01:41:30;;;;;;;25.60;8.52;;;;;;;-3.25;86.73;102051.38;5021628;28;20387;-69
2024/01/21 01:43:55;;;;;;;22.65;9.40;;;;;;;-3.30;87.07;102059.09;5023465;28;20042;-70
2024/01/21 01:46:22;;;;;;;23.45;9.68;;;;;;;-3.28;87.13;102051.44;5015679;28;20040;-70
2024/01/21 01:48:49;;;;;;;27.02;10.40;;;;;;;-3.24;86.77;102056.44;5008463;28;20508;-70
2024/01/21 01:51:15;;;;;;;19.45;8.50;;;;;;;-3.25;87.31;102056.47;5019020;28;20041;-71
2024/01/21 01:53:40;;;;;;;25.27;10.55;;;;;;;-3.23;87.37;102050.47;5024324;28;20037;-70
2024/01/21 01:56:07;;;;;;;24.27;9.85;;;;;;;-3.18;87.22;102047.84;5006012;28;20482;-70
2024/01/21 01:58:34;;;;;;;28.42;10.10;;;;;;;-3.16;86.79;102041.84;5020579;28;20037;-71
2024/01/21 02:01:01;;;;;;;26.95;10.25;;;;;;;-3.18;87.51;102042.75;4988406;28;20042;-71
2024/01/21 02:03:27;;;;;;;24.42;10.18;;;;;;;-3.09;86.84;102029.00;5012290;28;20226;-70
2024/01/21 02:05:53;;;;;;;27.63;11.07;;;;;;;-3.05;86.73;102023.81;4988538;28;20512;-69
2024/01/21 02:08:18;;;;;;;26.20;10.50;;;;;;;-3.04;87.04;102025.47;4998405;28;20045;-69
2024/01/21 02:10:44;;;;;;;26.85;10.50;;;;;;;-3.06;87.23;102021.31;4987024;28;20477;-69
2024/01/21 02:13:10;;;;;;;28.05;10.75;;;;;;;-3.05;87.00;102012.81;5001214;28;20040;-69
2024/01/21 02:15:35;;;;;;;29.50;10.73;;;;;;;-3.07;86.79;102017.94;5015906;28;20887;-69
2024/01/21 02:18:01;;;;;;;24.65;11.05;;;;;;;-3.06;86.49;102013.69;5011055;28;20381;-69
2024/01/21 02:20:26;;;;;;;30.50;11.45;;;;;;;-3.04;86.87;102005.16;5007527;28;20087;-69
2024/01/21 02:22:57;;;;;;;26.50;10.40;;;;;;;-2.99;86.80;101995.75;5019401;28;20025;-69
2024/01/21 02:25:22;;;;;;;30.98;11.80;;;;;;;-3.01;86.67;102005.09;4989888;28;20062;-69
2024/01/21 02:27:48;;;;;;;29.20;11.23;;;;;;;-3.13;87.06;101990.16;5005852;28;20040;-70
2024/01/21 02:30:13;;;;;;;22.38;10.48;;;;;;;-3.08;87.95;101997.69;5006051;28;21521;-69
2024/01/21 02:32:39;;;;;;;27.70;11.13;;;;;;;-3.04;86.91;101997.56;5022179;28;20056;-70
2024/01/21 02:35:04;;;;;;;26.13;11.23;;;;;;;-3.05;87.51;101997.59;5020121;28;20033;-69
2024/01/21 02:37:30;;;;;;;30.05;11.15;;;;;;;-3.07;86.92;101986.63;5005939;28;20086;-69
2024/01/21 02:39:55;;;;;;;30.17;11.90;;;;;;;-3.13;87.61;101969.88;5008943;28;20041;-69
2024/01/21 02:42:21;;;;;;;29.00;11.35;;;;;;;-3.13;87.77;101970.72;5001311;28;20037;-69
2024/01/21 02:44:46;;;;;;;31.15;12.15;;;;;;;-3.11;87.46;101974.91;5019768;28;20512;-69
2024/01/21 02:47:12;;;;;;;28.48;11.52;;;;;;;-3.06;86.99;101968.03;5006108;28;20033;-69
2024/01/21 02:49:37;;;;;;;29.52;11.27;;;;;;;-3.07;87.16;101972.28;5021169;28;20045;-69
2024/01/21 02:52:03;;;;;;;26.83;11.50;;;;;;;-3.13;87.41;101963.09;5024056;28;20033;-69
2024/01/21 02:54:28;;;;;;;30.30;12.57;;;;;;;-3.17;87.60;101965.75;5017418;28;20042;-69
2024/01/21 02:56:54;;;;;;;27.45;11.30;;;;;;;-3.06;86.86;101958.69;5006926;28;20033;-69
2024/01/21 02:59:19;;;;;;;28.48;10.23;;;;;;;-3.13;87.25;101962.25;5019960;28;20046;-69
2024/01/21 03:01:45;;;;;;;30.33;11.88;;;;;;;-3.13;87.29;101954.63;5002222;28;20033;-69
2024/01/21 03:04:11;;;;;;;28.60;12.63;;;;;;;-3.13;86.94;101949.56;5022324;28;20056;-69
2024/01/21 03:06:37;;;;;;;27.50;11.52;;;;;;;-3.10;87.00;101946.13;5004279;28;20124;-69
2024/01/21 03:09:03;;;;;;;30.02;11.45;;;;;;;-3.03;86.35;101945.94;5001815;28;20109;-69
2024/01/21 03:11:29;;;;;;;28.80;11.80;;;;;;;-3.10;86.47;101933.44;5022092;28;20033;-69
2024/01/21 03:13:54;;;;;;;33.30;12.18;;;;;;;-3.09;86.32;101938.47;4999553;28;20500;-69
2024/01/21 03:16:20;;;;;;;31.08;11.63;;;;;;;-3.10;86.78;101930.91;5020231;28;20041;-69
2024/01/21 03:18:45;;;;;;;30.05;11.65;;;;;;;-3.13;87.07;101919.13;5016970;28;20476;-69
2024/01/21 03:21:11;;;;;;;29.17;11.30;;;;;;;-3.19;87.53;101919.28;5024684;28;20029;-69
2024/01/21 03:23:36;;;;;;;28.48;11.23;;;;;;;-3.02;86.61;101913.75;5017562;28;20389;-69
2024/01/21 03:26:02;;;;;;;31.65;12.43;;;;;;;-3.00;86.67;101912.84;5002992;28;20037;-69
2024/01/21 03:28:27;;;;;;;27.02;11.60;;;;;;;-3.08;86.48;101907.16;5008126;28;20033;-69
2024/01/21 03:30:53;;;;;;;30.65;11.48;;;;;;;-3.02;85.83;101898.53;5003376;28;20094;-69
2024/01/21 03:33:18;;;;;;;22.77;10.35;;;;;;;-2.92;85.83;101899.09;5003530;28;20041;-69
2024/01/21 03:35:44;;;;;;;29.60;11.68;;;;;;;-2.94;85.72;101905.06;4991180;28;20507;-69
2024/01/21 03:38:09;;;;;;;22.75;10.57;;;;;;;-2.95;85.88;101900.03;4987402;28;20045;-70
2024/01/21 03:40:35;;;;;;;24.73;10.60;;;;;;;-2.99;86.55;101906.91;5021056;28;20049;-69
2024/01/21 03:43:00;;;;;;;30.45;12.27;;;;;;;-2.89;85.95;101904.13;5017777;28;20059;-69
2024/01/21 03:45:26;;;;;;;23.60;10.13;;;;;;;-2.88;85.40;101898.13;5003399;28;20737;-69
2024/01/21 03:47:51;;;;;;;27.23;10.95;;;;;;;-2.91;85.80;101899.06;5004095;28;20045;-70
2024/01/21 03:50:19;;;;;;;24.90;10.23;;;;;;;-2.83;86.06;101907.28;5010431;28;20099;-69
2024/01/21 03:52:48;;;;;;;25.05;10.13;;;;;;;-2.88;85.14;101890.53;5021727;28;20041;-69
2024/01/21 03:55:18;;;;;;;26.08;10.77;;;;;;;-2.78;85.06;101882.63;5023313;28;20068;-69
2024/01/21 03:57:44;;;;;;;28.60;11.98;;;;;;;-2.75;84.49;101876.59;5016492;28;20340;-69
2024/01/21 04:00:11;;;;;;;26.52;10.00;;;;;;;-2.79;84.16;101877.56;5004977;28;20038;-70
2024/01/21 04:02:39;;;;;;;26.67;10.38;;;;;;;-2.84;85.04;101887.88;5006271;28;20041;-69
2024/01/21 04:05:06;;;;;;;23.33;10.57;;;;;;;-2.84;84.81;101890.41;5007549;28;20052;-69
2024/01/21 04:07:32;;;;;;;28.52;11.65;;;;;;;-2.79;83.96;101888.59;5007867;28;20032;-69
2024/01/21 04:09:58;;;;;;;26.42;11.23;;;;;;;-2.68;83.63;101888.25;5020048;28;20066;-69
2024/01/21 04:12:24;;;;;;;23.83;11.18;;;;;;;-2.77;84.25;101886.84;4992659;28;20129;-70
2024/01/21 04:14:49;;;;;;;25.08;11.25;;;;;;;-2.74;84.03;101886.72;5015860;28;20037;-70
2024/01/21 04:17:15;;;;;;;27.20;10.95;;;;;;;-2.66;83.28;101878.88;5008455;28;20040;-69
2024/01/21 04:19:40;;;;;;;30.13;10.60;;;;;;;-2.59;82.83;101877.00;4990261;28;20041;-69
2024/01/21 04:22:06;;;;;;;25.80;10.23;;;;;;;-2.55;82.51;101870.97;5025126;28;20036;-70
2024/01/21 04:24:31;;;;;;;27.38;10.70;;;;;;;-2.60;82.36;101865.19;5024256;28;20522;-69
2024/01/21 04:26:57;;;;;;;22.13;9.10;;;;;;;-2.56;81.65;101864.22;5012632;28;20033;-69
2024/01/21 04:29:22;;;;;;;25.08;10.23;;;;;;;-2.49;81.66;101867.41;5009132;28;20408;-69
2024/01/21 04:31:48;;;;;;;25.98;10.20;;;;;;;-2.48;82.10;101856.38;5012478;28;20037;-69
2024/01/21 04:34:14;;;;;;;19.95;8.88;;;;;;;-2.46;82.12;101864.78;5027088;28;20038;-70
2024/01/21 04:36:39;;;;;;;26.58;10.63;;;;;;;-2.44;81.44;101853.69;5014200;28;20046;-69
2024/01/21 04:39:06;;;;;;;31.20;10.38;;;;;;;-2.51;81.67;101844.59;5028138;28;20411;-69
2024/01/21 04:41:32;;;;;;;26.30;11.02;;;;;;;-2.43;81.10;101839.28;5011057;28;20029;-69
2024/01/21 04:43:57;;;;;;;24.92;10.80;;;;;;;-2.47;81.80;101825.81;5008417;28;20040;-69
2024/01/21 04:46:23;;;;;;;27.52;10.90;;;;;;;-2.56;82.49;101821.88;5012796;28;20029;-69
2024/01/21 04:48:48;;;;;;;28.25;11.00;;;;;;;-2.47;82.35;101819.94;4994689;28;20045;-69
2024/01/21 04:51:14;;;;;;;27.00;10.15;;;;;;;-2.53;81.92;101813.31;5012257;28;20033;-70
2024/01/21 04:53:40;;;;;;;25.38;10.63;;;;;;;-2.55;82.66;101823.53;5028145;28;20048;-69
2024/01/21 04:56:06;;;;;;;27.17;11.90;;;;;;;-2.44;81.66;101817.31;4995714;28;20025;-69
2024/01/21 04:58:35;;;;;;;29.13;10.48;;;;;;;-2.47;81.61;101810.59;5010208;28;20623;-69
2024/01/21 05:01:00;;;;;;;22.00;8.82;;;;;;;-2.45;81.52;101805.47;4994386;28;20049;-69
2024/01/21 05:03:25;;;;;;;25.17;11.35;;;;;;;-2.51;81.34;101809.03;5008724;28;20038;-69
2024/01/21 05:05:51;;;;;;;27.55;10.68;;;;;;;-2.47;81.43;101805.50;5027879;28;20048;-69
2024/01/21 05:08:16;;;;;;;29.80;11.25;;;;;;;-2.42;80.94;101806.19;5026211;28;20036;-69
2024/01/21 05:10:42;;;;;;;23.23;9.38;;;;;;;-2.44;81.17;101802.06;5024796;28;20396;-69
2024/01/21 05:13:07;;;;;;;24.25;9.93;;;;;;;-2.45;81.17;101801.25;5010540;28;20096;-69
2024/01/21 05:15:33;;;;;;;25.55;11.48;;;;;;;-2.45;81.43;101793.63;5012035;28;20033;-69
2024/01/21 05:17:58;;;;;;;27.67;10.32;;;;;;;-2.46;80.75;101789.41;5025141;28;20151;-70
2024/01/21 05:20:24;;;;;;;25.23;10.27;;;;;;;-2.46;81.22;101783.50;5025080;28;20044;-70
2024/01/21 05:22:50;;;;;;;29.30;10.95;;;;;;;-2.46;80.84;101776.69;5024987;28;20026;-69
2024/01/21 05:25:18;;;;;;;26.35;10.68;;;;;;;-2.46;80.88;101788.56;5010100;28;20053;-69
2024/01/21 05:27:44;;;;;;;28.52;10.45;;;;;;;-2.50;80.69;101787.00;4990347;28;20053;-69
2024/01/21 05:30:12;;;;;;;26.20;9.82;;;;;;;-2.56;81.86;101778.69;5023268;28;20496;-69
2024/01/21 05:32:38;;;;;;;22.65;10.07;;;;;;;-2.49;80.99;101783.59;5007296;28;20041;-69
2024/01/21 05:35:04;;;;;;;23.58;9.63;;;;;;;-2.50;81.24;101784.47;5024482;28;20041;-69
2024/01/21 05:37:30;;;;;;;24.23;10.07;;;;;;;-2.50;81.07;101772.59;4990994;28;20053;-69
2024/01/21 05:39:55;;;;;;;22.88;9.98;;;;;;;-2.55;81.59;101767.66;5009879;28;20184;-69
2024/01/21 05:42:21;;;;;;;26.17;10.35;;;;;;;-2.52;81.33;101754.03;5024060;28;20036;-69
2024/01/21 05:44:46;;;;;;;26.48;10.32;;;;;;;-2.56;82.07;101755.84;4994159;28;20322;-69
2024/01/21 05:47:12;;;;;;;25.17;10.23;;;;;;;-2.56;81.93;101755.84;5007517;28;20025;-69
2024/01/21 05:49:39;;;;;;;26.45;10.13;;;;;;;-2.53;81.48;101749.00;5024907;28;20045;-70
2024/01/21 05:52:04;;;;;;;25.33;10.65;;;;;;;-2.56;81.57;101760.09;5027156;28;20488;-69
2024/01/21 05:54:30;;;;;;;28.38;10.65;;;;;;;-2.59;82.22;101750.03;5008334;28;20037;-69
2024/01/21 05:56:55;;;;;;;30.98;10.90;;;;;;;-2.49;81.54;101753.09;5024347;28;20033;-70
2024/01/21 05:59:21;;;;;;;23.60;9.90;;;;;;;-2.58;82.00;101759.28;5008993;28;20447;-70
2024/01/21 06:01:47;;;;;;;24.17;9.70;;;;;;;-2.58;82.69;101775.38;5009175;28;20042;-70
2024/01/21 06:04:13;;;;;;;27.27;10.15;;;;;;;-2.51;82.39;101770.91;5021782;28;20034;-70
2024/01/21 06:06:38;;;;;;;25.35;9.15;;;;;;;-2.40;81.46;101768.06;5026462;28;20492;-69
2024/01/21 06:09:04;;;;;;;23.92;9.98;;;;;;;-2.48;81.67;101768.28;5008702;28;20029;-69
2024/01/21 06:11:29;;;;;;;21.80;10.65;;;;;;;-2.49;82.34;101769.16;5027418;28;20495;-70
2024/01/21 06:13:55;;;;;;;26.33;9.73;;;;;;;-2.40;82.00;101742.66;5023851;28;20033;-70
2024/01/21 06:16:20;;;;;;;25.73;10.23;;;;;;;-2.44;83.08;101741.91;5026866;28;20045;-69
2024/01/21 06:18:46;;;;;;;24.95;10.35;;;;;;;-2.41;82.95;101725.72;5024805;28;20203;-70
2024/01/21 06:21:11;;;;;;;23.45;9.57;;;;;;;-2.48;83.27;101714.94;5025229;28;20041;-70
2024/01/21 06:23:37;;;;;;;26.83;9.35;;;;;;;-2.46;83.55;101707.28;5027072;28;20061;-69
2024/01/21 06:26:03;;;;;;;24.45;10.25;;;;;;;-2.43;82.89;101710.56;5026138;28;20416;-69
2024/01/21 06:28:28;;;;;;;25.67;9.80;;;;;;;-2.47;83.80;101710.69;4993987;28;20034;-70
2024/01/21 06:30:54;;;;;;;24.90;9.52;;;;;;;-2.42;82.92;101704.59;5026069;28;20041;-69
2024/01/21 06:33:19;;;;;;;22.65;10.05;;;;;;;-2.43;83.43;101717.31;5012229;28;20041;-70
2024/01/21 06:35:45;;;;;;;23.17;9.57;;;;;;;-2.46;83.59;101741.13;5000334;28;20033;-69
2024/01/21 06:38:10;;;;;;;24.58;10.20;;;;;;;-2.39;83.15;101754.47;5026948;28;20040;-70
2024/01/21 06:40:36;;;;;;;26.50;9.85;;;;;;;-2.43;83.53;101761.38;5027564;28;20025;-70
2024/01/21 06:43:02;;;;;;;24.05;10.13;;;;;;;-2.36;83.61;101765.34;5006055;28;20472;-70
2024/01/21 06:45:27;;;;;;;25.58;9.57;;;;;;;-2.38;83.86;101776.44;5026830;28;20065;-69
2024/01/21 06:47:53;;;;;;;21.77;8.85;;;;;;;-2.41;84.29;101767.22;5007599;28;20392;-71
2024/01/21 06:50:18;;;;;;;26.90;10.80;;;;;;;-2.41;84.60;101784.16;4991950;28;20627;-70
2024/01/21 06:52:44;;;;;;;26.20;9.15;;;;;;;-2.32;84.34;101786.41;5024212;28;20480;-70
2024/01/21 06:55:09;;;;;;;22.67;9.55;;;;;;;-2.28;84.71;101794.78;5006556;28;20045;-70
2024/01/21 06:57:35;;;;;;;22.00;9.77;;;;;;;-2.25;83.72;101782.81;5010450;28;20040;-70
2024/01/21 07:00:05;;;;;;;22.45;9.23;;;;;;;-2.25;84.00;101780.25;5018353;28;20467;-70
2024/01/21 07:02:32;;;;;;;25.75;9.82;;;;;;;-2.18;83.46;101780.91;4988629;28;20051;-70
2024/01/21 07:04:57;;;;;;;23.25;9.20;;;;;;;-2.12;82.64;101787.50;5005933;28;20407;-70
2024/01/21 07:07:23;;;;;;;25.10;9.30;;;;;;;-2.09;82.06;101790.78;5025634;28;20036;-70
2024/01/21 07:09:48;;;;;;;21.63;8.57;;;;;;;-2.12;82.21;101790.88;5005396;28;20037;-70
2024/01/21 07:12:14;;;;;;;22.35;9.13;;;;;;;-2.00;81.44;101785.41;5026926;28;20037;-69
2024/01/21 07:14:40;;;;;;;23.50;9.32;;;;;;;-2.10;82.14;101791.66;5006193;28;20142;-69
2024/01/21 07:17:05;;;;;;;25.17;9.90;;;;;;;-2.18;82.85;101799.53;5023274;28;20040;-70
2024/01/21 07:19:31;;;;;;;25.02;8.95;;;;;;;-2.09;83.38;101795.00;5022197;28;20531;-69
2024/01/21 07:21:56;;;;;;;22.30;8.85;;;;;;;-2.10;83.04;101804.34;5003408;28;20037;-70
2024/01/21 07:24:22;;;;;;;19.75;8.48;;;;;;;-2.10;83.33;101801.81;5011474;28;20048;-69
2024/01/21 07:26:47;;;;;;;26.17;9.55;;;;;;;-2.06;83.12;101812.72;5025692;28;20044;-70
2024/01/21 07:29:15;;;;;;;22.13;10.00;;;;;;;-2.21;84.50;101829.28;4991092;28;20034;-70
2024/01/21 07:31:41;;;;;;;28.23;9.98;;;;;;;-2.23;84.80;101838.66;5007534;28;20045;-69
2024/01/21 07:34:10;;;;;;;23.77;9.77;;;;;;;-2.17;84.93;101835.94;5021876;28;20040;-70
2024/01/21 07:36:36;;;;;;;24.52;10.02;;;;;;;-2.12;84.73;101826.44;5006403;28;20064;-70
2024/01/21 07:39:04;;;;;;;22.48;9.45;;;;;;;-2.11;84.49;101838.28;5005379;28;20033;-70
2024/01/21 07:41:30;;;;;;;23.23;8.52;;;;;;;-2.01;84.32;101831.19;5008027;28;20037;-69
2024/01/21 07:43:56;;;;;;;23.60;9.23;;;;;;;-1.92;83.52;101837.69;5021852;28;20041;-70
2024/01/21 07:46:21;;;;;;;28.55;10.55;;;;;;;-1.98;84.04;101826.00;5017724;28;20033;-69
2024/01/21 07:48:47;;;;;;;20.15;8.73;;;;;;;-1.89;83.89;101822.34;5020867;28;20045;-69
2024/01/21 07:51:12;;;;;;;20.63;8.88;;;;;;;-1.81;83.49;101812.72;5013144;28;20029;-69
2024/01/21 07:53:37;;;;;;;19.75;8.48;;;;;;;-1.90;83.79;101813.03;5022539;28;20087;-70
2024/01/21 07:56:03;;;;;;;24.98;9.48;;;;;;;-2.00;85.09;101799.78;5007919;28;20099;-70
2024/01/21 07:58:29;;;;;;;22.77;9.02;;;;;;;-1.96;85.17;101778.47;5006839;28;20041;-70
2024/01/21 08:00:54;;;;;;;21.77;8.95;;;;;;;-1.99;85.95;101787.03;5022761;28;20499;-70
2024/01/21 08:03:20;;;;;;;27.23;11.70;;;;;;;-1.90;84.60;101778.28;5007069;28;20048;-70
2024/01/21 08:05:45;;;;;;;21.77;10.25;;;;;;;-1.69;83.56;101765.72;5022080;28;20032;-69
2024/01/21 08:08:11;;;;;;;21.30;9.45;;;;;;;-1.64;83.25;101754.50;5025175;28;20029;-71
2024/01/21 08:10:36;;;;;;;21.30;8.98;;;;;;;-1.55;82.83;101752.50;5023924;28;20480;-71
2024/01/21 08:13:02;;;;;;;18.08;8.52;;;;;;;-1.49;81.37;101765.00;5021175;28;20037;-71
2024/01/21 08:15:27;;;;;;;19.45;8.13;;;;;;;-1.41;81.73;101760.50;5026896;28;20030;-71
2024/01/21 08:17:53;;;;;;;22.15;8.30;;;;;;;-1.38;80.50;101748.47;5007224;28;20083;-71
2024/01/21 08:20:19;;;;;;;17.75;8.10;;;;;;;-1.30;80.02;101748.22;5024330;28;20798;-71
2024/01/21 08:22:45;;;;;;;14.27;6.55;;;;;;;-1.27;78.35;101745.53;4990757;28;20090;-71
2024/01/21 08:25:10;;;;;;;17.50;7.90;;;;;;;-1.20;78.70;101748.69;5025447;28;20044;-71
2024/01/21 08:27:36;;;;;;;19.10;8.32;;;;;;;-1.01;77.35;101736.09;4993522;28;20033;-71
2024/01/21 08:30:04;;;;;;;17.40;7.45;;;;;;;-1.15;78.31;101769.69;5025200;28;20407;-71
2024/01/21 08:32:29;;;;;;;27.02;7.45;;;;;;;-1.16;78.29;101796.06;5008791;28;20553;-71
2024/01/21 08:34:55;;;;;;;18.88;7.18;;;;;;;-1.12;78.81;101806.97;5007102;28;20033;-71
2024/01/21 08:37:20;;;;;;;18.40;6.47;;;;;;;-1.05;76.97;101824.50;5008733;28;20542;-71
2024/01/21 08:39:48;;;;;;;15.93;6.65;;;;;;;-1.04;77.19;101843.97;5025998;28;20025;-71
2024/01/21 08:42:13;;;;;;;15.25;6.47;;;;;;;-1.08;77.05;101852.59;5007537;28;20502;-71
2024/01/21 08:44:39;;;;;;;20.40;6.22;;;;;;;-0.88;74.85;101858.72;5025505;28;20053;-71
2024/01/21 08:47:04;;;;;;;14.13;6.50;;;;;;;-0.73;74.47;101870.06;5025101;28;20045;-71
2024/01/21 08:49:30;;;;;;;13.00;6.07;;;;;;;-0.44;71.70;101862.13;5024004;28;20033;-71
2024/01/21 08:51:55;;;;;;;15.57;6.65;;;;;;;-0.18;69.46;101846.72;5008118;28;20562;-71
2024/01/21 08:54:21;;;;;;;16.33;6.32;;;;;;;0.03;67.43;101845.03;5022847;28;20519;-71
2024/01/21 08:56:47;;;;;;;15.68;6.72;;;;;;;0.23;66.54;101850.13;5007919;28;20037;-71
2024/01/21 08:59:13;;;;;;;13.02;5.95;;;;;;;0.18;66.98;101855.41;5006838;28;20168;-71
2024/01/21 09:01:38;;;;;;;13.93;6.25;;;;;;;0.25;65.59;101852.63;5025210;28;20420;-71
2024/01/21 09:04:04;;;;;;;17.35;6.57;;;;;;;0.35;65.49;101838.59;5023272;28;20029;-71
2024/01/21 09:06:29;;;;;;;11.77;5.82;;;;;;;0.31;65.82;101862.56;5022130;28;20422;-71
2024/01/21 09:08:56;;;;;;;15.38;6.07;;;;;;;0.40;65.83;101867.31;5013386;28;20056;-71
2024/01/21 09:11:23;;;;;;;12.18;5.03;;;;;;;0.45;63.94;101865.38;5028763;28;20103;-71
2024/01/21 09:13:49;;;;;;;14.13;5.60;;;;;;;0.49;63.07;101851.59;5027806;28;20060;-71
2024/01/21 09:16:19;;;;;;;15.10;6.13;;;;;;;0.56;63.52;101852.97;5030639;28;20061;-71
2024/01/21 09:18:46;;;;;;;13.90;5.85;;;;;;;0.46;65.13;101861.94;5006211;28;20298;-71
2024/01/21 09:21:11;;;;;;;13.32;6.00;;;;;;;0.55;64.09;101861.56;5024478;28;20451;-71
2024/01/21 09:23:37;;;;;;;13.63;5.60;;;;;;;0.60;62.96;101863.06;5026262;28;20041;-71
2024/01/21 09:26:03;;;;;;;14.10;6.00;;;;;;;0.53;63.11;101858.25;5009044;28;20034;-71
2024/01/21 09:28:28;;;;;;;11.95;5.68;;;;;;;0.82;62.33;101853.59;5028763;28;20539;-72
2024/01/21 09:30:53;;;;;;;14.38;5.68;;;;;;;0.81;62.72;101846.84;5024571;28;20037;-72
2024/01/21 09:33:20;;;;;;;16.50;6.05;;;;;;;0.88;63.33;101840.53;5027959;28;20544;-71
2024/01/21 09:35:45;;;;;;;15.40;6.30;;;;;;;0.94;64.06;101842.00;5011390;28;20365;-72
2024/01/21 09:38:13;;;;;;;13.40;5.97;;;;;;;0.86;64.60;101844.06;5010526;28;20037;-71
2024/01/21 09:40:39;;;;;;;13.98;6.05;;;;;;;0.77;64.88;101837.63;5013206;28;20068;-72
2024/01/21 09:43:05;;;;;;;12.35;5.95;;;;;;;0.93;64.96;101832.69;5015242;28;20040;-72
2024/01/21 09:45:34;;;;;;;21.92;7.45;;;;;;;0.96;64.98;101840.19;5011430;28;20034;-71
2024/01/21 09:48:00;;;;;;;30.52;11.32;;;;;;;1.07;64.78;101839.72;5004741;28;20025;-71
2024/01/21 09:50:26;;;;;;;46.75;16.85;;;;;;;1.15;64.36;101846.16;5018827;28;20029;-71
2024/01/21 09:52:52;;;;;;;20.10;8.32;;;;;;;1.24;65.33;101857.69;5012017;28;20040;-72
2024/01/21 09:55:18;;;;;;;14.65;7.05;;;;;;;1.30;64.20;101854.88;5027377;28;20045;-71
2024/01/21 09:57:45;;;;;;;17.08;9.10;;;;;;;1.11;65.41;101854.03;5020539;28;20080;-71
2024/01/21 10:00:13;;;;;;;21.23;8.82;;;;;;;1.16;65.51;101859.75;5009162;28;20041;-71
2024/01/21 10:02:42;;;;;;;22.92;9.90;;;;;;;1.06;65.59;101858.53;5026820;28;20039;-71
2024/01/21 10:05:08;;;;;;;16.17;7.57;;;;;;;1.09;65.67;101850.72;5026335;28;20116;-71
2024/01/21 10:07:35;;;;;;;19.80;7.75;;;;;;;1.24;66.30;101856.84;5010830;28;20029;-71
2024/01/21 10:10:01;;;;;;;14.02;7.13;;;;;;;1.16;66.95;101859.75;5026982;28;20033;-71
2024/01/21 10:12:27;;;;;;;19.20;8.93;;;;;;;1.08;67.91;101865.22;5012925;28;20032;-71
2024/01/21 10:14:52;;;;;;;18.35;7.47;;;;;;;1.10;67.85;101867.72;5020953;28;20127;-71
2024/01/21 10:17:24;;;;;;;20.00;8.10;;;;;;;1.13;67.85;101863.28;5028577;28;20487;-72
2024/01/21 10:19:52;;;;;;;16.40;8.25;;;;;;;1.20;68.33;101873.22;5009467;28;20033;-71
2024/01/21 10:22:18;;;;;;;18.95;7.15;;;;;;;1.26;68.39;101865.28;5010967;28;20446;-71
2024/01/21 10:24:46;;;;;;;22.20;9.48;;;;;;;1.23;68.87;101876.47;5010223;28;20037;-71
2024/01/21 10:27:12;;;;;;;19.08;6.65;;;;;;;1.28;68.81;101868.59;5008379;28;20399;-72
2024/01/21 10:29:43;;;;;;;18.35;8.18;;;;;;;1.25;69.90;101879.78;5019236;28;20042;-71
2024/01/21 10:32:13;;;;;;;11.70;6.28;;;;;;;1.45;71.72;101878.91;5013938;28;20100;-71
2024/01/21 10:34:40;;;;;;;12.73;5.50;;;;;;;1.81;71.33;101867.84;5017792;28;20450;-72
2024/01/21 10:37:07;;;;;;;11.13;5.20;;;;;;;1.72;71.58;101865.72;5025881;28;20090;-71
2024/01/21 10:39:35;;;;;;;9.70;5.63;;;;;;;1.75;73.40;101884.31;5009352;28;20041;-71
2024/01/21 10:42:01;;;;;;;8.93;4.15;;;;;;;1.75;74.18;101876.63;5026079;28;20118;-72
2024/01/21 10:44:27;;;;;;;10.95;5.10;;;;;;;1.77;77.64;101889.31;5025217;28;20527;-72
2024/01/21 10:46:54;;;;;;;9.32;4.20;;;;;;;2.04;78.80;101888.94;4999524;28;20026;-72
2024/01/21 10:49:20;;;;;;;10.15;5.05;;;;;;;2.00;79.81;101882.28;5023631;28;20487;-72
2024/01/21 10:51:48;;;;;;;10.60;4.97;;;;;;;2.04;80.60;101865.91;5020656;28;20056;-72
2024/01/21 10:54:14;;;;;;;14.50;6.25;;;;;;;2.20;80.87;101878.78;5021413;28;20543;-72
2024/01/21 10:56:41;;;;;;;11.93;5.78;;;;;;;2.14;81.95;101870.47;5010723;28;20044;-72
2024/01/21 10:59:06;;;;;;;11.65;5.80;;;;;;;2.18;82.69;101871.16;5026955;28;20448;-72
2024/01/21 11:01:33;;;;;;;10.80;4.70;;;;;;;2.28;82.34;101864.69;4993818;28;20090;-72
2024/01/21 11:04:12;;;;;;;13.20;6.13;;;;;;;2.28;83.03;101866.41;5004006;28;20037;-72
2024/01/21 11:06:44;;;;;;;11.55;5.05;;;;;;;2.42;82.88;101868.31;5025341;28;20025;-72
2024/01/21 11:09:10;;;;;;;9.13;4.93;;;;;;;2.44;82.13;101866.50;4990057;28;20131;-72